Terminal Aerodrome Forecast
Issued by NWS

Home | Current Version | Previous Version | Text Only | Print | Product List | Glossary On
Versions: 1 2 3 4 5 6 7 8 9 10 11 12 13 14 15 16 17 18 19 20 21 22 23 24 25 26 27 28
279
FTUS42 KRAH 282335
TAFRWI
TAF
KRWI 282335Z 2900/2924 VRB03KT P6SM SCT060 SCT100 BKN250
     FM290600 VRB03KT P6SM OVC050
     FM290900 01005KT P6SM VCSH SCT025 BKN035 PROB30 2909/2913 4SM
      -SHRA OVC010
     FM291300 06004KT 4SM BR VCSH OVC025
     FM291700 08006KT 4SM -SHRA BR OVC025
      TEMPO 2918/2922 6SM -TSRA BKN015CB=

USA.gov is the U.S. government's official web portal to all federal, state and local government web resources and services.